Time;durP1;ratioP1;P1;durP2;ratioP2;P2;SDS_P1;SDS_P2;PMS_P1;PMS_P2;Temp;Humidity;BMP_temperature;BMP_pressure;BME280_temperature;BME280_humidity;BME280_pressure;Samples;Min_cycle;Max_cycle;Signal;HPM_P1;HPM_P2
2023/02/25 00:01:22;;;;;;;29.90;4.72;;;;;;;;;;5100068;28;20157;-66
2023/02/25 00:03:52;;;;;;;24.98;4.05;;;;;;;;;;5080916;28;20040;-66
2023/02/25 00:06:18;;;;;;;24.85;5.85;;;;;;;;;;5097790;28;20101;-66
2023/02/25 00:08:45;;;;;;;28.27;4.90;;;;;;;;;;5098131;28;20039;-66
2023/02/25 00:11:12;;;;;;;33.40;4.85;;;;;;;;;;5100731;28;20087;-67
2023/02/25 00:13:39;;;;;;;35.28;5.90;;;;;;;;;;5101632;28;20531;-66
2023/02/25 00:16:06;;;;;;;26.67;5.15;;;;;;;;;;5094995;28;20079;-66
2023/02/25 00:18:32;;;;;;;28.48;3.30;;;;;;;;;;5080044;28;20404;-66
2023/02/25 00:20:59;;;;;;;25.92;5.00;;;;;;;;;;5077000;28;20048;-66
2023/02/25 00:23:25;;;;;;;27.95;4.15;;;;;;;;;;5081747;28;20071;-66
2023/02/25 00:25:59;;;;;;;39.72;4.25;;;;;;;;;;5099108;28;20452;-66
2023/02/25 00:28:25;;;;;;;28.45;3.95;;;;;;;;;;5100859;28;20044;-66
2023/02/25 00:30:51;;;;;;;31.73;4.90;;;;;;;;;;5087441;28;20044;-66
2023/02/25 00:33:17;;;;;;;31.85;4.43;;;;;;;;;;5096523;28;20046;-65
2023/02/25 00:35:44;;;;;;;26.52;3.30;;;;;;;;;;5083350;28;20417;-66
2023/02/25 00:38:10;;;;;;;21.92;3.55;;;;;;;;;;5097450;28;20108;-67
2023/02/25 00:40:38;;;;;;;24.40;4.03;;;;;;;;;;5072973;28;20514;-66
2023/02/25 00:43:05;;;;;;;23.83;4.20;;;;;;;;;;5095338;27;20055;-66
2023/02/25 00:45:31;;;;;;;24.58;4.95;;;;;;;;;;5085731;28;20044;-66
2023/02/25 00:47:58;;;;;;;28.77;4.60;;;;;;;;;;5082727;28;20047;-66
2023/02/25 00:50:24;;;;;;;21.95;3.42;;;;;;;;;;5075654;28;20859;-66
2023/02/25 00:52:50;;;;;;;20.17;3.05;;;;;;;;;;5099200;27;20040;-66
2023/02/25 00:55:16;;;;;;;30.75;3.90;;;;;;;;;;5099053;27;20039;-65
2023/02/25 00:57:43;;;;;;;21.08;4.80;;;;;;;;;;5101244;27;20040;-66
2023/02/25 01:00:14;;;;;;;21.48;3.30;;;;;;;;;;5103055;27;20040;-66
2023/02/25 01:02:42;;;;;;;23.13;3.05;;;;;;;;;;5080065;28;20605;-66
2023/02/25 01:05:09;;;;;;;28.05;3.63;;;;;;;;;;5096434;27;20096;-66
2023/02/25 01:07:36;;;;;;;21.70;3.95;;;;;;;;;;5101275;27;20036;-66
2023/02/25 01:10:03;;;;;;;32.22;4.07;;;;;;;;;;5094273;28;21638;-66
2023/02/25 01:12:29;;;;;;;31.13;6.07;;;;;;;;;;5075727;28;20059;-66
2023/02/25 01:14:56;;;;;;;48.03;5.70;;;;;;;;;;5105944;27;20040;-66
2023/02/25 01:17:22;;;;;;;31.80;5.07;;;;;;;;;;5097460;27;20071;-66
2023/02/25 01:19:48;;;;;;;35.67;4.65;;;;;;;;;;5080364;28;20074;-66
2023/02/25 01:22:15;;;;;;;49.33;6.03;;;;;;;;;;5095177;27;20090;-66
2023/02/25 01:24:41;;;;;;;33.13;4.82;;;;;;;;;;5098660;27;20394;-66
2023/02/25 01:27:07;;;;;;;35.88;5.60;;;;;;;;;;5095012;28;20210;-66
2023/02/25 01:29:37;;;;;;;31.80;5.50;;;;;;;;;;5097507;27;20074;-66
2023/02/25 01:32:04;;;;;;;31.17;5.90;;;;;;;;;;5097640;27;20051;-66
2023/02/25 01:34:30;;;;;;;36.95;5.20;;;;;;;;;;5103366;27;20047;-66
2023/02/25 01:36:57;;;;;;;36.38;5.53;;;;;;;;;;5085187;28;20082;-66
2023/02/25 01:39:24;;;;;;;28.27;4.45;;;;;;;;;;5075792;28;20434;-66
2023/02/25 01:41:51;;;;;;;37.40;6.95;;;;;;;;;;5098363;27;20098;-66
2023/02/25 01:44:20;;;;;;;28.33;5.43;;;;;;;;;;5080337;28;21208;-66
2023/02/25 01:46:47;;;;;;;29.00;6.10;;;;;;;;;;5102742;28;20134;-66
2023/02/25 01:49:20;;;;;;;31.25;3.78;;;;;;;;;;5079784;28;20428;-66
2023/02/25 01:51:48;;;;;;;17.85;4.15;;;;;;;;;;5099385;27;20127;-66
2023/02/25 01:54:15;;;;;;;41.47;5.38;;;;;;;;;;5079417;28;20039;-66
2023/02/25 01:56:42;;;;;;;28.88;3.90;;;;;;;;;;5094685;28;20043;-66
2023/02/25 01:59:09;;;;;;;23.30;3.42;;;;;;;;;;5100518;27;20111;-66
2023/02/25 02:01:37;;;;;;;37.25;4.80;;;;;;;;;;5097488;27;20398;-66
2023/02/25 02:04:05;;;;;;;30.05;4.15;;;;;;;;;;5100233;27;20109;-66
2023/02/25 02:06:33;;;;;;;21.20;3.85;;;;;;;;;;5081175;28;20371;-66
2023/02/25 02:09:00;;;;;;;28.00;3.67;;;;;;;;;;5078656;28;20062;-66
2023/02/25 02:11:26;;;;;;;26.40;5.57;;;;;;;;;;5079865;28;20039;-66
2023/02/25 02:13:54;;;;;;;34.90;5.63;;;;;;;;;;5100066;28;20128;-66
2023/02/25 02:16:28;;;;;;;25.27;4.90;;;;;;;;;;5097743;28;20062;-66
2023/02/25 02:18:57;;;;;;;27.80;4.93;;;;;;;;;;5098978;28;20081;-66
2023/02/25 02:21:44;;;;;;;34.75;6.47;;;;;;;;;;5096851;28;20050;-66
2023/02/25 02:24:28;;;;;;;32.10;4.30;;;;;;;;;;5096534;28;20403;-66
2023/02/25 02:27:01;;;;;;;30.48;3.85;;;;;;;;;;5095790;28;20048;-66
2023/02/25 02:29:39;;;;;;;25.35;4.35;;;;;;;;;;5083576;27;20059;-66
2023/02/25 02:32:06;;;;;;;25.50;3.78;;;;;;;;;;5078828;28;20051;-66
2023/02/25 02:34:39;;;;;;;27.02;4.32;;;;;;;;;;5098130;28;20050;-66
2023/02/25 02:37:12;;;;;;;33.72;5.90;;;;;;;;;;5095459;27;20086;-66
2023/02/25 02:39:43;;;;;;;25.17;3.28;;;;;;;;;;5103838;27;20410;-66
2023/02/25 02:42:20;;;;;;;23.58;4.22;;;;;;;;;;5094209;28;20452;-66
2023/02/25 02:44:51;;;;;;;26.30;4.40;;;;;;;;;;5080264;28;20056;-66
2023/02/25 02:47:17;;;;;;;26.33;3.95;;;;;;;;;;5097935;28;20064;-66
2023/02/25 02:49:46;;;;;;;37.90;6.70;;;;;;;;;;5103428;28;20048;-66
2023/02/25 02:52:15;;;;;;;26.27;3.97;;;;;;;;;;5096778;28;20036;-66
2023/02/25 02:54:44;;;;;;;32.90;4.95;;;;;;;;;;5084563;28;20100;-66
2023/02/25 02:57:11;;;;;;;27.42;4.55;;;;;;;;;;5102554;28;20044;-66
2023/02/25 02:59:41;;;;;;;30.55;5.15;;;;;;;;;;5096380;28;20040;-66
2023/02/25 03:02:11;;;;;;;34.75;4.63;;;;;;;;;;5080257;28;20134;-66
2023/02/25 03:04:38;;;;;;;24.65;3.65;;;;;;;;;;5084061;28;20047;-65
2023/02/25 03:07:07;;;;;;;25.40;4.07;;;;;;;;;;5104426;28;20136;-66
2023/02/25 03:09:39;;;;;;;33.30;4.68;;;;;;;;;;5102164;28;20040;-66
2023/02/25 03:12:06;;;;;;;34.55;6.20;;;;;;;;;;5099518;28;20519;-66
2023/02/25 03:14:32;;;;;;;26.15;4.53;;;;;;;;;;5098192;28;20036;-65
2023/02/25 03:17:04;;;;;;;31.48;3.60;;;;;;;;;;5097015;28;20115;-66
2023/02/25 03:19:34;;;;;;;31.23;5.00;;;;;;;;;;5098755;28;20360;-66
2023/02/25 03:22:04;;;;;;;27.70;4.95;;;;;;;;;;5084577;28;20040;-66
2023/02/25 03:24:34;;;;;;;21.35;3.13;;;;;;;;;;5098106;28;20047;-66
2023/02/25 03:27:01;;;;;;;21.77;3.20;;;;;;;;;;5099398;28;20442;-66
2023/02/25 03:29:27;;;;;;;24.20;3.22;;;;;;;;;;5097340;28;20047;-67
2023/02/25 03:32:06;;;;;;;22.38;3.15;;;;;;;;;;5099131;28;20071;-67
2023/02/25 03:34:36;;;;;;;20.83;3.08;;;;;;;;;;5099603;28;20395;-66
2023/02/25 03:37:05;;;;;;;9.73;1.83;;;;;;;;;;5098112;28;20048;-66
2023/02/25 03:39:35;;;;;;;13.77;1.85;;;;;;;;;;5098025;28;20450;-65
2023/02/25 03:42:03;;;;;;;10.65;1.42;;;;;;;;;;5080362;28;20063;-66
2023/02/25 03:44:32;;;;;;;8.40;1.63;;;;;;;;;;5079773;28;20075;-65
2023/02/25 03:46:59;;;;;;;15.05;2.33;;;;;;;;;;5076990;28;20067;-65
2023/02/25 03:49:28;;;;;;;21.17;2.08;;;;;;;;;;5073359;28;20036;-65
2023/02/25 03:51:56;;;;;;;19.00;2.50;;;;;;;;;;5078692;28;20036;-65
2023/02/25 03:54:22;;;;;;;18.05;2.97;;;;;;;;;;5079251;28;20062;-66
2023/02/25 03:56:50;;;;;;;18.77;3.60;;;;;;;;;;5078784;28;20126;-66
2023/02/25 03:59:16;;;;;;;17.88;2.20;;;;;;;;;;5078077;28;20052;-65
2023/02/25 04:01:44;;;;;;;14.32;2.20;;;;;;;;;;5078131;28;20075;-65
2023/02/25 04:04:10;;;;;;;16.70;2.33;;;;;;;;;;5082046;28;20403;-65
2023/02/25 04:06:36;;;;;;;20.13;2.22;;;;;;;;;;5078020;28;20054;-66
2023/02/25 04:09:03;;;;;;;16.90;2.83;;;;;;;;;;5073968;28;20044;-65
2023/02/25 04:11:30;;;;;;;19.63;2.65;;;;;;;;;;5073749;28;20093;-66
2023/02/25 04:13:56;;;;;;;18.77;2.53;;;;;;;;;;5075677;28;20114;-66
2023/02/25 04:16:22;;;;;;;16.98;2.67;;;;;;;;;;5076393;28;20097;-65
2023/02/25 04:18:48;;;;;;;19.95;2.47;;;;;;;;;;5078677;28;20483;-65
2023/02/25 04:21:26;;;;;;;27.92;4.15;;;;;;;;;;5078201;28;20537;-66
2023/02/25 04:23:52;;;;;;;21.55;3.17;;;;;;;;;;5082849;28;20044;-65
2023/02/25 04:26:18;;;;;;;19.63;3.08;;;;;;;;;;5081394;28;20090;-65
2023/02/25 04:28:44;;;;;;;24.95;3.35;;;;;;;;;;5078731;28;20055;-65
2023/02/25 04:31:11;;;;;;;22.45;3.13;;;;;;;;;;5077108;28;20543;-66
2023/02/25 04:33:37;;;;;;;23.02;4.30;;;;;;;;;;5078674;28;20561;-65
2023/02/25 04:36:03;;;;;;;19.50;2.83;;;;;;;;;;5078754;28;20372;-65
2023/02/25 04:38:29;;;;;;;15.60;3.90;;;;;;;;;;5059597;28;20051;-65
2023/02/25 04:40:55;;;;;;;11.85;2.05;;;;;;;;;;5078194;28;20047;-66
2023/02/25 04:43:21;;;;;;;14.50;2.85;;;;;;;;;;5080743;27;20117;-65
2023/02/25 04:45:48;;;;;;;18.90;3.70;;;;;;;;;;5081832;28;20071;-66
2023/02/25 04:48:14;;;;;;;19.67;3.10;;;;;;;;;;5103117;27;20043;-65
2023/02/25 04:50:40;;;;;;;18.10;2.85;;;;;;;;;;5098453;27;20121;-65
2023/02/25 04:53:06;;;;;;;13.10;2.63;;;;;;;;;;5096735;27;20116;-66
2023/02/25 04:55:35;;;;;;;16.42;2.60;;;;;;;;;;5093525;27;20048;-66
2023/02/25 04:58:01;;;;;;;24.25;2.92;;;;;;;;;;5097008;27;20046;-66
2023/02/25 05:00:27;;;;;;;24.17;2.85;;;;;;;;;;5097524;27;20086;-65
2023/02/25 05:02:54;;;;;;;27.70;4.00;;;;;;;;;;5096658;27;20040;-65
2023/02/25 05:05:20;;;;;;;34.75;4.00;;;;;;;;;;5075819;28;20130;-65
2023/02/25 05:07:46;;;;;;;27.63;3.30;;;;;;;;;;5099511;27;20047;-66
2023/02/25 05:10:13;;;;;;;17.25;3.03;;;;;;;;;;5101306;27;20043;-66
2023/02/25 05:12:40;;;;;;;22.75;2.80;;;;;;;;;;5101552;27;20040;-66
2023/02/25 05:15:07;;;;;;;16.08;3.33;;;;;;;;;;5078724;27;20044;-65
2023/02/25 05:17:34;;;;;;;21.10;2.25;;;;;;;;;;5098983;27;20059;-66
2023/02/25 05:20:00;;;;;;;20.17;2.95;;;;;;;;;;5078718;28;20044;-66
2023/02/25 05:22:27;;;;;;;21.25;3.20;;;;;;;;;;5098730;27;20054;-65
2023/02/25 05:24:53;;;;;;;22.02;3.60;;;;;;;;;;5096007;28;20052;-65
2023/02/25 05:27:19;;;;;;;28.20;3.08;;;;;;;;;;5100107;27;20088;-65
2023/02/25 05:29:45;;;;;;;10.32;0.98;;;;;;;;;;5082393;28;20491;-65
2023/02/25 05:32:11;;;;;;;4.47;0.98;;;;;;;;;;5094958;27;20501;-65
2023/02/25 05:34:37;;;;;;;7.97;0.70;;;;;;;;;;5096359;27;20478;-65
2023/02/25 05:37:04;;;;;;;3.42;0.70;;;;;;;;;;5100285;27;20032;-66
2023/02/25 05:39:30;;;;;;;6.85;1.30;;;;;;;;;;5079862;28;20054;-65
2023/02/25 05:41:56;;;;;;;4.82;1.23;;;;;;;;;;5075166;28;20358;-65
2023/02/25 05:44:22;;;;;;;8.40;1.30;;;;;;;;;;5073315;28;20040;-65
2023/02/25 05:46:48;;;;;;;8.70;1.63;;;;;;;;;;5078412;28;20093;-65
2023/02/25 05:49:14;;;;;;;15.07;1.67;;;;;;;;;;5076177;28;20044;-65
2023/02/25 05:51:41;;;;;;;11.60;1.83;;;;;;;;;;5073778;28;20094;-65
2023/02/25 05:54:07;;;;;;;8.77;1.40;;;;;;;;;;5075388;28;20135;-65
2023/02/25 05:56:33;;;;;;;6.65;1.00;;;;;;;;;;5076099;28;20036;-65
2023/02/25 05:58:59;;;;;;;6.43;1.38;;;;;;;;;;5076598;28;20138;-66
2023/02/25 06:01:28;;;;;;;5.13;1.40;;;;;;;;;;5076844;28;20046;-65
2023/02/25 06:03:57;;;;;;;7.90;1.30;;;;;;;;;;5072621;28;20098;-65
2023/02/25 06:06:24;;;;;;;13.02;1.20;;;;;;;;;;5075530;28;20048;-66
2023/02/25 06:08:50;;;;;;;10.57;1.20;;;;;;;;;;5075044;28;20052;-65
2023/02/25 06:11:18;;;;;;;7.75;1.33;;;;;;;;;;5077979;28;20040;-65
2023/02/25 06:13:44;;;;;;;8.82;1.10;;;;;;;;;;5075929;28;20044;-65
2023/02/25 06:16:11;;;;;;;5.35;1.00;;;;;;;;;;5078610;28;20499;-65
2023/02/25 06:18:37;;;;;;;7.35;1.60;;;;;;;;;;5068916;28;21386;-65
2023/02/25 06:21:04;;;;;;;6.20;1.00;;;;;;;;;;5069779;28;20044;-65
2023/02/25 06:23:30;;;;;;;10.15;1.20;;;;;;;;;;5072947;28;20467;-65
2023/02/25 06:25:57;;;;;;;4.85;0.65;;;;;;;;;;5076524;28;20186;-65
2023/02/25 06:28:24;;;;;;;5.80;1.10;;;;;;;;;;5074641;28;20036;-65
2023/02/25 06:30:50;;;;;;;8.88;1.42;;;;;;;;;;5076811;28;20033;-65
2023/02/25 06:33:16;;;;;;;14.18;3.50;;;;;;;;;;5074714;28;20091;-66
2023/02/25 06:35:42;;;;;;;13.30;2.20;;;;;;;;;;5073059;28;20529;-66
2023/02/25 06:38:08;;;;;;;10.25;1.55;;;;;;;;;;5078699;28;20052;-66
2023/02/25 06:40:34;;;;;;;12.00;2.40;;;;;;;;;;5078005;28;20381;-66
2023/02/25 06:43:01;;;;;;;18.80;2.08;;;;;;;;;;5093321;28;20063;-66
2023/02/25 06:45:27;;;;;;;13.02;1.45;;;;;;;;;;5099208;28;20081;-66
2023/02/25 06:47:53;;;;;;;11.15;1.90;;;;;;;;;;5084661;28;20391;-66
2023/02/25 06:50:19;;;;;;;18.95;2.35;;;;;;;;;;5083848;28;20126;-66
2023/02/25 06:52:45;;;;;;;12.00;2.00;;;;;;;;;;5098555;28;20036;-66
2023/02/25 06:55:11;;;;;;;16.38;2.53;;;;;;;;;;5100037;28;20105;-66
2023/02/25 06:57:37;;;;;;;10.82;1.95;;;;;;;;;;5103889;28;20043;-66
2023/02/25 07:00:04;;;;;;;11.02;1.90;;;;;;;;;;5101468;28;20044;-66
2023/02/25 07:02:31;;;;;;;15.70;1.92;;;;;;;;;;5093528;28;20130;-66
2023/02/25 07:04:57;;;;;;;11.75;1.70;;;;;;;;;;5093687;28;20725;-66
2023/02/25 07:07:23;;;;;;;16.27;2.05;;;;;;;;;;5100438;28;20048;-66
2023/02/25 07:09:49;;;;;;;12.23;1.95;;;;;;;;;;5078209;28;20136;-66
2023/02/25 07:12:15;;;;;;;13.38;2.00;;;;;;;;;;5098776;28;20042;-65
2023/02/25 07:14:42;;;;;;;9.75;1.75;;;;;;;;;;5097670;28;20043;-66
2023/02/25 07:17:08;;;;;;;17.95;2.22;;;;;;;;;;5098328;28;20036;-65
2023/02/25 07:19:34;;;;;;;13.45;1.52;;;;;;;;;;5104425;28;20034;-66
2023/02/25 07:22:00;;;;;;;13.07;2.33;;;;;;;;;;5084769;28;20055;-66
2023/02/25 07:24:26;;;;;;;12.18;2.35;;;;;;;;;;5095540;28;20450;-66
2023/02/25 07:26:54;;;;;;;14.68;2.35;;;;;;;;;;5083458;28;20054;-66
2023/02/25 07:29:20;;;;;;;20.00;2.03;;;;;;;;;;5104570;28;20145;-66
2023/02/25 07:31:46;;;;;;;12.07;1.67;;;;;;;;;;5100559;28;20055;-66
2023/02/25 07:34:13;;;;;;;18.40;2.20;;;;;;;;;;5098189;28;20040;-66
2023/02/25 07:36:40;;;;;;;18.42;2.67;;;;;;;;;;5099126;28;20039;-66
2023/02/25 07:39:07;;;;;;;17.45;2.78;;;;;;;;;;5102732;28;20043;-66
2023/02/25 07:41:34;;;;;;;14.18;2.20;;;;;;;;;;5096602;28;20392;-66
2023/02/25 07:44:01;;;;;;;14.82;2.40;;;;;;;;;;5096655;28;20122;-66
2023/02/25 07:46:27;;;;;;;17.17;2.03;;;;;;;;;;5082149;28;20125;-66
2023/02/25 07:48:53;;;;;;;15.20;2.47;;;;;;;;;;5087635;28;20080;-67
2023/02/25 07:51:21;;;;;;;12.57;2.60;;;;;;;;;;5106090;28;20039;-67
2023/02/25 07:53:48;;;;;;;15.88;2.17;;;;;;;;;;5102756;28;20429;-66
2023/02/25 07:56:14;;;;;;;22.83;2.88;;;;;;;;;;5080553;28;20083;-66
2023/02/25 07:58:40;;;;;;;10.55;2.08;;;;;;;;;;5096080;28;20047;-65
2023/02/25 08:01:08;;;;;;;16.08;2.42;;;;;;;;;;5102541;28;20461;-66
2023/02/25 08:03:34;;;;;;;16.05;2.40;;;;;;;;;;5104091;28;20040;-66
2023/02/25 08:06:05;;;;;;;18.23;2.42;;;;;;;;;;5094484;28;20051;-78
2023/02/25 08:08:31;;;;;;;18.38;3.00;;;;;;;;;;5097529;28;21409;-66
2023/02/25 08:10:57;;;;;;;14.00;2.08;;;;;;;;;;5096481;28;20395;-67
2023/02/25 08:13:23;;;;;;;15.60;2.35;;;;;;;;;;5092925;28;20122;-67
2023/02/25 08:15:49;;;;;;;15.35;2.15;;;;;;;;;;5095400;28;20070;-66
2023/02/25 08:18:16;;;;;;;15.77;1.80;;;;;;;;;;5077893;28;20043;-66
2023/02/25 08:20:46;;;;;;;20.75;3.00;;;;;;;;;;5092547;28;20058;-66
2023/02/25 08:23:12;;;;;;;15.60;2.28;;;;;;;;;;5094297;28;20046;-65
2023/02/25 08:25:39;;;;;;;10.98;1.35;;;;;;;;;;5096286;28;20048;-65
2023/02/25 08:28:05;;;;;;;14.23;3.63;;;;;;;;;;5096111;28;20121;-68
2023/02/25 08:30:32;;;;;;;9.10;1.80;;;;;;;;;;5099246;28;20047;-66
2023/02/25 08:32:58;;;;;;;12.93;2.63;;;;;;;;;;5074824;28;20043;-68
2023/02/25 08:35:24;;;;;;;9.63;1.70;;;;;;;;;;5077526;28;20040;-66
2023/02/25 08:37:51;;;;;;;13.27;2.15;;;;;;;;;;5094349;28;20495;-66
2023/02/25 08:40:18;;;;;;;11.00;1.45;;;;;;;;;;5095106;28;20047;-67
2023/02/25 08:42:44;;;;;;;13.68;2.60;;;;;;;;;;5092009;28;20450;-67
2023/02/25 08:45:10;;;;;;;8.95;1.65;;;;;;;;;;5095022;28;20058;-66
2023/02/25 08:47:37;;;;;;;13.50;1.98;;;;;;;;;;5097076;28;20113;-67
2023/02/25 08:50:04;;;;;;;11.48;1.90;;;;;;;;;;5095053;28;20647;-67
2023/02/25 08:52:32;;;;;;;8.10;1.55;;;;;;;;;;5076720;28;20051;-67
2023/02/25 08:55:00;;;;;;;9.73;1.38;;;;;;;;;;5076775;28;20115;-67
2023/02/25 08:57:27;;;;;;;11.30;2.17;;;;;;;;;;5090355;28;20098;-67
2023/02/25 08:59:53;;;;;;;11.43;1.55;;;;;;;;;;5090262;28;20048;-67
2023/02/25 09:02:19;;;;;;;12.27;2.97;;;;;;;;;;5097388;28;20036;-67
2023/02/25 09:04:45;;;;;;;11.43;1.92;;;;;;;;;;5075621;28;20083;-73
2023/02/25 09:07:12;;;;;;;11.52;1.52;;;;;;;;;;5092825;28;20085;-68
2023/02/25 09:09:39;;;;;;;7.80;1.52;;;;;;;;;;5091364;28;20050;-67
2023/02/25 09:12:06;;;;;;;10.55;2.05;;;;;;;;;;5093434;28;20468;-67
2023/02/25 09:14:33;;;;;;;12.48;2.28;;;;;;;;;;5091035;28;20063;-67
2023/02/25 09:17:02;;;;;;;17.95;1.77;;;;;;;;;;5088825;28;20645;-67
2023/02/25 09:19:28;;;;;;;8.25;1.77;;;;;;;;;;5090209;28;20617;-67
2023/02/25 09:21:54;;;;;;;11.27;2.03;;;;;;;;;;5075515;28;20128;-67
2023/02/25 09:24:20;;;;;;;14.63;2.28;;;;;;;;;;5092233;28;20040;-67
2023/02/25 09:26:47;;;;;;;13.50;1.80;;;;;;;;;;5070952;28;20048;-67
2023/02/25 09:29:13;;;;;;;11.23;1.50;;;;;;;;;;5069984;28;20051;-67
2023/02/25 09:31:39;;;;;;;10.23;1.50;;;;;;;;;;5091582;28;20452;-68
2023/02/25 09:34:07;;;;;;;15.13;2.05;;;;;;;;;;5093968;28;20050;-67
2023/02/25 09:36:33;;;;;;;9.30;1.40;;;;;;;;;;5073608;28;20055;-67
2023/02/25 09:39:00;;;;;;;12.30;1.70;;;;;;;;;;5094087;28;20468;-67
2023/02/25 09:41:41;;;;;;;11.50;1.73;;;;;;;;;;5086707;28;20056;-67
2023/02/25 09:44:13;;;;;;;7.65;1.88;;;;;;;;;;5092602;28;20051;-67
2023/02/25 09:46:42;;;;;;;11.70;2.70;;;;;;;;;;5092253;28;20430;-67
2023/02/25 09:49:15;;;;;;;9.20;2.03;;;;;;;;;;5089299;28;20062;-68
2023/02/25 09:51:46;;;;;;;13.98;1.92;;;;;;;;;;5090665;28;20134;-69
2023/02/25 09:54:14;;;;;;;9.90;1.60;;;;;;;;;;5063221;28;20418;-68
2023/02/25 09:56:40;;;;;;;12.85;1.98;;;;;;;;;;5090832;28;20067;-68
2023/02/25 09:59:11;;;;;;;22.73;3.08;;;;;;;;;;5091430;28;20065;-69
2023/02/25 10:01:39;;;;;;;15.20;2.40;;;;;;;;;;5090293;28;20496;-69
2023/02/25 10:04:09;;;;;;;13.48;2.17;;;;;;;;;;5073583;28;20048;-69
2023/02/25 10:06:38;;;;;;;12.73;2.08;;;;;;;;;;5079275;28;20048;-69
2023/02/25 10:09:13;;;;;;;10.57;2.10;;;;;;;;;;5092848;28;20044;-69
2023/02/25 10:11:52;;;;;;;13.77;2.30;;;;;;;;;;5075052;28;20078;-69
2023/02/25 10:14:19;;;;;;;15.77;2.58;;;;;;;;;;5093347;28;20043;-69
2023/02/25 10:16:56;;;;;;;12.05;2.20;;;;;;;;;;5075357;28;20372;-69
2023/02/25 10:19:39;;;;;;;27.98;2.58;;;;;;;;;;5090598;28;20054;-69
2023/02/25 10:22:16;;;;;;;11.18;2.05;;;;;;;;;;5093224;28;20138;-69
2023/02/25 10:24:45;;;;;;;10.38;1.90;;;;;;;;;;5094492;28;20130;-69
2023/02/25 10:27:20;;;;;;;6.72;1.85;;;;;;;;;;5075391;28;20048;-69
2023/02/25 10:29:49;;;;;;;11.93;1.98;;;;;;;;;;5076806;28;20555;-69
2023/02/25 10:32:17;;;;;;;12.88;2.13;;;;;;;;;;5096089;28;20136;-69
2023/02/25 10:34:43;;;;;;;12.07;1.95;;;;;;;;;;5095006;28;20490;-69
2023/02/25 10:37:21;;;;;;;18.33;3.70;;;;;;;;;;5093900;28;20508;-69
2023/02/25 10:39:49;;;;;;;14.80;2.67;;;;;;;;;;5090988;28;20548;-69
2023/02/25 10:42:16;;;;;;;11.00;1.98;;;;;;;;;;5092166;28;20048;-69
2023/02/25 10:44:43;;;;;;;14.30;2.88;;;;;;;;;;5074618;28;20093;-69
2023/02/25 10:47:12;;;;;;;27.15;3.92;;;;;;;;;;5094789;28;20170;-69
2023/02/25 10:49:38;;;;;;;14.68;2.20;;;;;;;;;;5079562;28;20445;-69
2023/02/25 10:52:17;;;;;;;12.55;2.80;;;;;;;;;;5096319;28;20040;-69
2023/02/25 10:54:46;;;;;;;6.97;1.58;;;;;;;;;;5094287;28;20063;-69
2023/02/25 10:57:15;;;;;;;8.70;1.23;;;;;;;;;;5076587;28;20044;-69
2023/02/25 10:59:42;;;;;;;14.45;2.10;;;;;;;;;;5095070;28;20043;-69
2023/02/25 11:02:20;;;;;;;11.55;1.83;;;;;;;;;;5073492;28;20043;-68
2023/02/25 11:04:48;;;;;;;11.85;2.15;;;;;;;;;;5075366;28;20079;-69
2023/02/25 11:07:34;;;;;;;7.45;1.83;;;;;;;;;;5095271;28;20094;-68
2023/02/25 11:10:10;;;;;;;12.18;1.90;;;;;;;;;;5073181;28;20472;-68
2023/02/25 11:12:41;;;;;;;15.43;2.10;;;;;;;;;;5092908;28;20047;-69
2023/02/25 11:15:22;;;;;;;12.60;1.83;;;;;;;;;;5078009;28;20048;-70
2023/02/25 11:17:49;;;;;;;14.15;2.05;;;;;;;;;;5083933;28;20139;-68
2023/02/25 11:20:31;;;;;;;10.30;2.25;;;;;;;;;;5092350;28;20040;-69
2023/02/25 11:22:58;;;;;;;16.52;2.50;;;;;;;;;;5072283;28;20072;-69
2023/02/25 11:25:37;;;;;;;14.38;2.05;;;;;;;;;;5091614;28;20068;-69
2023/02/25 11:28:06;;;;;;;15.68;2.60;;;;;;;;;;5093912;28;20047;-69
2023/02/25 11:30:36;;;;;;;13.73;2.53;;;;;;;;;;5097492;28;20574;-69
2023/02/25 11:33:04;;;;;;;10.75;2.55;;;;;;;;;;5080581;28;20057;-69
2023/02/25 11:35:34;;;;;;;11.90;2.25;;;;;;;;;;5099433;28;20031;-69
2023/02/25 11:38:12;;;;;;;12.40;2.10;;;;;;;;;;5096374;28;20097;-69
2023/02/25 11:40:43;;;;;;;11.63;2.22;;;;;;;;;;5080482;28;20619;-69
2023/02/25 11:43:19;;;;;;;10.48;1.98;;;;;;;;;;5074852;28;20113;-69
2023/02/25 11:45:49;;;;;;;11.70;2.35;;;;;;;;;;5079789;28;20067;-69
2023/02/25 11:48:18;;;;;;;11.18;2.15;;;;;;;;;;5077555;28;20055;-69
2023/02/25 11:50:48;;;;;;;8.43;2.00;;;;;;;;;;5077148;28;20056;-70
2023/02/25 11:53:21;;;;;;;14.15;2.40;;;;;;;;;;5073359;28;20452;-69
2023/02/25 11:55:57;;;;;;;11.23;2.05;;;;;;;;;;5072991;28;20036;-70
2023/02/25 11:58:31;;;;;;;10.55;2.17;;;;;;;;;;5069669;28;20041;-70
2023/02/25 12:01:00;;;;;;;14.82;2.58;;;;;;;;;;5070731;28;20052;-69
2023/02/25 12:03:34;;;;;;;9.43;2.40;;;;;;;;;;5069965;28;20163;-70
2023/02/25 12:06:00;;;;;;;9.88;2.25;;;;;;;;;;5072660;28;20041;-69
2023/02/25 12:08:38;;;;;;;11.80;2.15;;;;;;;;;;5071524;28;20063;-68
2023/02/25 12:11:20;;;;;;;12.48;2.40;;;;;;;;;;5073329;28;20592;-69
2023/02/25 12:13:47;;;;;;;8.35;2.33;;;;;;;;;;5069343;28;20059;-69
2023/02/25 12:16:32;;;;;;;11.82;2.33;;;;;;;;;;5074058;28;20545;-69
2023/02/25 12:18:58;;;;;;;7.72;1.60;;;;;;;;;;5077283;28;20044;-70
2023/02/25 12:21:38;;;;;;;9.85;1.90;;;;;;;;;;5074574;28;20029;-69
2023/02/25 12:24:07;;;;;;;7.35;2.05;;;;;;;;;;5073878;28;20040;-70
2023/02/25 12:26:40;;;;;;;10.98;2.00;;;;;;;;;;5075047;28;20052;-69
2023/02/25 12:29:32;;;;;;;8.63;1.50;;;;;;;;;;5073234;28;20043;-67
2023/02/25 12:32:07;;;;;;;7.00;1.42;;;;;;;;;;5072356;28;20135;-67
2023/02/25 12:34:45;;;;;;;13.60;2.05;;;;;;;;;;5069483;28;20040;-67
2023/02/25 12:37:12;;;;;;;8.95;2.17;;;;;;;;;;5074828;28;20040;-69
2023/02/25 12:39:39;;;;;;;6.80;1.90;;;;;;;;;;5080298;28;20040;-69
2023/02/25 12:42:24;;;;;;;14.27;2.35;;;;;;;;;;5077608;28;20447;-69
2023/02/25 12:45:03;;;;;;;9.30;1.52;;;;;;;;;;5074869;28;20060;-69
2023/02/25 12:47:33;;;;;;;7.45;1.50;;;;;;;;;;5078763;28;20047;-69
2023/02/25 12:50:04;;;;;;;8.13;1.67;;;;;;;;;;5070811;28;20124;-69
2023/02/25 12:52:36;;;;;;;7.18;1.48;;;;;;;;;;5075839;28;20048;-69
2023/02/25 12:55:18;;;;;;;8.63;2.10;;;;;;;;;;5075758;28;20419;-69
2023/02/25 12:57:50;;;;;;;8.98;1.77;;;;;;;;;;5076904;28;20056;-69
2023/02/25 13:00:34;;;;;;;6.20;1.52;;;;;;;;;;5074274;28;20206;-69
2023/02/25 13:03:20;;;;;;;11.55;1.80;;;;;;;;;;5067123;28;20041;-69
2023/02/25 13:05:59;;;;;;;10.13;1.92;;;;;;;;;;5072816;28;20188;-69
2023/02/25 13:08:31;;;;;;;11.30;1.90;;;;;;;;;;5068968;28;20044;-69
2023/02/25 13:10:57;;;;;;;7.38;1.52;;;;;;;;;;5071972;28;20052;-69
2023/02/25 13:13:30;;;;;;;9.85;2.03;;;;;;;;;;5071990;28;20093;-69
2023/02/25 13:15:57;;;;;;;7.70;1.60;;;;;;;;;;5070336;28;20056;-69
2023/02/25 13:18:40;;;;;;;8.77;1.90;;;;;;;;;;5071707;28;20047;-69
2023/02/25 13:21:15;;;;;;;9.07;1.60;;;;;;;;;;5073516;28;21437;-69
2023/02/25 13:23:52;;;;;;;10.55;1.90;;;;;;;;;;5077084;28;20511;-69
2023/02/25 13:26:38;;;;;;;10.50;2.00;;;;;;;;;;5075834;28;20071;-69
2023/02/25 13:29:05;;;;;;;12.32;2.33;;;;;;;;;;5077270;28;20092;-69
2023/02/25 13:31:40;;;;;;;17.45;3.38;;;;;;;;;;5074744;28;20186;-69
2023/02/25 13:34:18;;;;;;;10.73;2.38;;;;;;;;;;5075745;28;20044;-69
2023/02/25 13:36:53;;;;;;;7.78;1.85;;;;;;;;;;5076649;28;20040;-69
2023/02/25 13:39:25;;;;;;;11.32;2.58;;;;;;;;;;5066751;28;20510;-69
2023/02/25 13:41:52;;;;;;;10.50;2.47;;;;;;;;;;5078495;28;20522;-69
2023/02/25 13:44:34;;;;;;;13.63;2.55;;;;;;;;;;5088388;28;20059;-69
2023/02/25 13:47:17;;;;;;;15.63;2.72;;;;;;;;;;5090228;28;20036;-69
2023/02/25 13:49:57;;;;;;;10.63;1.95;;;;;;;;;;5067827;28;20048;-68
2023/02/25 13:52:26;;;;;;;12.93;2.00;;;;;;;;;;5088342;28;20451;-73
2023/02/25 13:55:05;;;;;;;7.80;1.88;;;;;;;;;;5067502;28;20097;-68
2023/02/25 13:57:50;;;;;;;11.00;2.38;;;;;;;;;;5088554;28;20093;-68
2023/02/25 14:00:34;;;;;;;10.93;2.33;;;;;;;;;;5088617;28;20482;-69
2023/02/25 14:03:01;;;;;;;11.05;1.70;;;;;;;;;;5091493;28;20104;-68
2023/02/25 14:05:37;;;;;;;12.15;2.47;;;;;;;;;;5094444;28;20652;-68
2023/02/25 14:08:13;;;;;;;9.23;1.73;;;;;;;;;;5097819;28;20097;-68
2023/02/25 14:10:39;;;;;;;12.20;1.98;;;;;;;;;;5095116;28;20130;-68
2023/02/25 14:13:11;;;;;;;8.75;1.50;;;;;;;;;;5092668;28;20115;-68
2023/02/25 14:15:47;;;;;;;9.10;1.38;;;;;;;;;;5074962;28;20181;-68
2023/02/25 14:18:22;;;;;;;8.38;1.90;;;;;;;;;;5092721;28;20035;-69
2023/02/25 14:21:11;;;;;;;12.57;1.60;;;;;;;;;;5091227;28;20089;-70
2023/02/25 14:23:47;;;;;;;9.48;1.92;;;;;;;;;;5092668;28;20043;-68
2023/02/25 14:26:13;;;;;;;9.25;2.05;;;;;;;;;;5076088;28;20044;-69
2023/02/25 14:29:04;;;;;;;11.50;1.63;;;;;;;;;;5097801;28;20032;-69
2023/02/25 14:31:46;;;;;;;14.18;2.42;;;;;;;;;;5092014;28;20051;-69
2023/02/25 14:34:18;;;;;;;6.43;1.67;;;;;;;;;;5070130;28;20054;-68
2023/02/25 14:36:53;;;;;;;12.43;2.35;;;;;;;;;;5090594;28;20052;-69
2023/02/25 14:39:27;;;;;;;9.68;1.90;;;;;;;;;;5097989;28;20039;-69
2023/02/25 14:41:53;;;;;;;12.70;2.20;;;;;;;;;;5096215;28;20059;-68
2023/02/25 14:44:26;;;;;;;10.35;1.70;;;;;;;;;;5095147;28;20113;-68
2023/02/25 14:46:56;;;;;;;11.05;2.00;;;;;;;;;;5089259;28;20074;-69